sensor_id;sensor_type;location;lat;lon;timestamp;temperature;humidity
27540;DHT22;15906;52.046;4.724;2023-11-21T00:00:18;6.80;99.90
27540;DHT22;15906;52.046;4.724;2023-11-21T00:02:44;6.80;99.90
27540;DHT22;15906;52.046;4.724;2023-11-21T00:05:11;6.80;99.90
27540;DHT22;15906;52.046;4.724;2023-11-21T00:07:39;6.80;99.90
27540;DHT22;15906;52.046;4.724;2023-11-21T00:10:05;6.80;99.90
27540;DHT22;15906;52.046;4.724;2023-11-21T00:12:32;6.90;99.90
27540;DHT22;15906;52.046;4.724;2023-11-21T00:14:58;6.90;99.90
27540;DHT22;15906;52.046;4.724;2023-11-21T00:17:24;6.90;99.90
27540;DHT22;15906;52.046;4.724;2023-11-21T00:19:50;7.00;99.90
27540;DHT22;15906;52.046;4.724;2023-11-21T00:22:17;7.00;99.90
27540;DHT22;15906;52.046;4.724;2023-11-21T00:24:43;7.10;99.90
27540;DHT22;15906;52.046;4.724;2023-11-21T00:27:09;7.20;99.90
27540;DHT22;15906;52.046;4.724;2023-11-21T00:29:35;7.20;99.90
27540;DHT22;15906;52.046;4.724;2023-11-21T00:32:00;7.30;99.90
27540;DHT22;15906;52.046;4.724;2023-11-21T00:34:26;7.30;99.90
27540;DHT22;15906;52.046;4.724;2023-11-21T00:36:51;7.40;99.90
27540;DHT22;15906;52.046;4.724;2023-11-21T00:39:17;7.50;99.90
27540;DHT22;15906;52.046;4.724;2023-11-21T00:41:42;7.50;99.90
27540;DHT22;15906;52.046;4.724;2023-11-21T00:44:10;7.50;99.90
27540;DHT22;15906;52.046;4.724;2023-11-21T00:46:36;7.60;99.90
27540;DHT22;15906;52.046;4.724;2023-11-21T00:49:02;7.60;99.90
27540;DHT22;15906;52.046;4.724;2023-11-21T00:51:29;7.60;99.90
27540;DHT22;15906;52.046;4.724;2023-11-21T00:53:55;7.70;99.90
27540;DHT22;15906;52.046;4.724;2023-11-21T00:56:21;7.70;99.90
27540;DHT22;15906;52.046;4.724;2023-11-21T00:58:47;7.70;99.90
27540;DHT22;15906;52.046;4.724;2023-11-21T01:01:15;7.70;99.90
27540;DHT22;15906;52.046;4.724;2023-11-21T01:03:41;7.70;99.90
27540;DHT22;15906;52.046;4.724;2023-11-21T01:06:07;7.80;99.90
27540;DHT22;15906;52.046;4.724;2023-11-21T01:08:34;7.80;99.90
27540;DHT22;15906;52.046;4.724;2023-11-21T01:10:59;7.80;99.90
27540;DHT22;15906;52.046;4.724;2023-11-21T01:13:25;7.90;99.90
27540;DHT22;15906;52.046;4.724;2023-11-21T01:15:55;7.90;99.90
27540;DHT22;15906;52.046;4.724;2023-11-21T01:18:21;7.90;99.90
27540;DHT22;15906;52.046;4.724;2023-11-21T01:20:46;8.00;99.90
27540;DHT22;15906;52.046;4.724;2023-11-21T01:23:13;8.00;99.90
27540;DHT22;15906;52.046;4.724;2023-11-21T01:25:38;8.00;99.90
27540;DHT22;15906;52.046;4.724;2023-11-21T01:28:04;8.00;99.90
27540;DHT22;15906;52.046;4.724;2023-11-21T01:30:29;8.10;99.90
27540;DHT22;15906;52.046;4.724;2023-11-21T01:32:55;8.10;99.90
27540;DHT22;15906;52.046;4.724;2023-11-21T01:35:20;8.10;99.90
27540;DHT22;15906;52.046;4.724;2023-11-21T01:37:46;8.10;99.90
27540;DHT22;15906;52.046;4.724;2023-11-21T01:40:13;8.20;99.90
27540;DHT22;15906;52.046;4.724;2023-11-21T01:42:40;8.20;99.90
27540;DHT22;15906;52.046;4.724;2023-11-21T01:45:06;8.20;99.90
27540;DHT22;15906;52.046;4.724;2023-11-21T01:47:35;8.20;99.90
27540;DHT22;15906;52.046;4.724;2023-11-21T01:50:02;8.30;99.90
27540;DHT22;15906;52.046;4.724;2023-11-21T01:52:30;8.20;99.90
27540;DHT22;15906;52.046;4.724;2023-11-21T01:54:57;8.20;99.90
27540;DHT22;15906;52.046;4.724;2023-11-21T01:57:23;8.30;99.90
27540;DHT22;15906;52.046;4.724;2023-11-21T01:59:49;8.30;99.90
27540;DHT22;15906;52.046;4.724;2023-11-21T02:02:15;8.30;99.90
27540;DHT22;15906;52.046;4.724;2023-11-21T02:04:42;8.30;99.90
27540;DHT22;15906;52.046;4.724;2023-11-21T02:07:07;8.30;99.90
27540;DHT22;15906;52.046;4.724;2023-11-21T02:09:33;8.30;99.90
27540;DHT22;15906;52.046;4.724;2023-11-21T02:12:00;8.40;99.90
27540;DHT22;15906;52.046;4.724;2023-11-21T02:14:26;8.40;99.90
27540;DHT22;15906;52.046;4.724;2023-11-21T02:16:53;8.40;99.90
27540;DHT22;15906;52.046;4.724;2023-11-21T02:19:20;8.40;99.90
27540;DHT22;15906;52.046;4.724;2023-11-21T02:21:50;8.40;99.90
27540;DHT22;15906;52.046;4.724;2023-11-21T02:24:20;8.50;99.90
27540;DHT22;15906;52.046;4.724;2023-11-21T02:26:49;8.50;99.90
27540;DHT22;15906;52.046;4.724;2023-11-21T02:29:17;8.50;99.90
27540;DHT22;15906;52.046;4.724;2023-11-21T02:31:44;8.50;99.90
27540;DHT22;15906;52.046;4.724;2023-11-21T02:34:17;8.60;99.90
27540;DHT22;15906;52.046;4.724;2023-11-21T02:36:44;8.60;99.90
27540;DHT22;15906;52.046;4.724;2023-11-21T02:39:10;8.60;99.90
27540;DHT22;15906;52.046;4.724;2023-11-21T02:41:39;8.70;99.90
27540;DHT22;15906;52.046;4.724;2023-11-21T02:44:05;8.70;99.90
27540;DHT22;15906;52.046;4.724;2023-11-21T02:46:32;8.70;99.90
27540;DHT22;15906;52.046;4.724;2023-11-21T02:49:05;8.70;99.90
27540;DHT22;15906;52.046;4.724;2023-11-21T02:51:36;8.80;99.90
27540;DHT22;15906;52.046;4.724;2023-11-21T02:54:01;8.80;99.90
27540;DHT22;15906;52.046;4.724;2023-11-21T02:56:30;8.80;99.90
27540;DHT22;15906;52.046;4.724;2023-11-21T02:58:56;8.80;99.90
27540;DHT22;15906;52.046;4.724;2023-11-21T03:01:22;8.80;99.90
27540;DHT22;15906;52.046;4.724;2023-11-21T03:03:49;8.80;99.90
27540;DHT22;15906;52.046;4.724;2023-11-21T03:06:19;8.80;99.90
27540;DHT22;15906;52.046;4.724;2023-11-21T03:08:45;8.90;99.90
27540;DHT22;15906;52.046;4.724;2023-11-21T03:11:11;8.90;99.90
27540;DHT22;15906;52.046;4.724;2023-11-21T03:13:39;8.90;99.90
27540;DHT22;15906;52.046;4.724;2023-11-21T03:16:05;8.90;99.90
27540;DHT22;15906;52.046;4.724;2023-11-21T03:18:31;8.90;99.90
27540;DHT22;15906;52.046;4.724;2023-11-21T03:20:57;8.90;99.90
27540;DHT22;15906;52.046;4.724;2023-11-21T03:23:23;8.90;99.90
27540;DHT22;15906;52.046;4.724;2023-11-21T03:25:48;8.90;99.90
27540;DHT22;15906;52.046;4.724;2023-11-21T03:28:14;9.00;99.90
27540;DHT22;15906;52.046;4.724;2023-11-21T03:30:39;9.00;99.90
27540;DHT22;15906;52.046;4.724;2023-11-21T03:33:05;9.00;99.90
27540;DHT22;15906;52.046;4.724;2023-11-21T03:35:30;9.00;99.90
27540;DHT22;15906;52.046;4.724;2023-11-21T03:37:56;9.00;99.90
27540;DHT22;15906;52.046;4.724;2023-11-21T03:40:22;9.00;99.90
27540;DHT22;15906;52.046;4.724;2023-11-21T03:42:47;9.10;99.90
27540;DHT22;15906;52.046;4.724;2023-11-21T03:45:13;9.10;99.90
27540;DHT22;15906;52.046;4.724;2023-11-21T03:47:41;9.00;99.90
27540;DHT22;15906;52.046;4.724;2023-11-21T03:50:07;9.00;99.90
27540;DHT22;15906;52.046;4.724;2023-11-21T03:52:34;9.00;99.90
27540;DHT22;15906;52.046;4.724;2023-11-21T03:55:00;9.00;99.90
27540;DHT22;15906;52.046;4.724;2023-11-21T03:57:26;9.10;99.90
27540;DHT22;15906;52.046;4.724;2023-11-21T03:59:53;9.10;99.90
27540;DHT22;15906;52.046;4.724;2023-11-21T04:02:18;9.10;99.90
27540;DHT22;15906;52.046;4.724;2023-11-21T04:04:44;9.10;99.90
27540;DHT22;15906;52.046;4.724;2023-11-21T04:07:09;9.10;99.90
27540;DHT22;15906;52.046;4.724;2023-11-21T04:09:35;9.10;99.90
27540;DHT22;15906;52.046;4.724;2023-11-21T04:12:01;9.10;99.90
27540;DHT22;15906;52.046;4.724;2023-11-21T04:14:27;9.10;99.90
27540;DHT22;15906;52.046;4.724;2023-11-21T04:16:53;9.10;99.90
27540;DHT22;15906;52.046;4.724;2023-11-21T04:19:19;9.10;99.90
27540;DHT22;15906;52.046;4.724;2023-11-21T04:21:44;9.10;99.90
27540;DHT22;15906;52.046;4.724;2023-11-21T04:24:10;9.10;99.90
27540;DHT22;15906;52.046;4.724;2023-11-21T04:26:36;9.20;99.90
27540;DHT22;15906;52.046;4.724;2023-11-21T04:29:02;9.10;99.90
27540;DHT22;15906;52.046;4.724;2023-11-21T04:31:27;9.10;99.90
27540;DHT22;15906;52.046;4.724;2023-11-21T04:33:53;9.20;99.90
27540;DHT22;15906;52.046;4.724;2023-11-21T04:36:18;9.20;99.90
27540;DHT22;15906;52.046;4.724;2023-11-21T04:38:45;9.20;99.90
27540;DHT22;15906;52.046;4.724;2023-11-21T04:41:11;9.20;99.90
27540;DHT22;15906;52.046;4.724;2023-11-21T04:43:37;9.20;99.90
27540;DHT22;15906;52.046;4.724;2023-11-21T04:46:03;9.30;99.90
27540;DHT22;15906;52.046;4.724;2023-11-21T04:48:28;9.30;99.90
27540;DHT22;15906;52.046;4.724;2023-11-21T04:50:54;9.30;99.90
27540;DHT22;15906;52.046;4.724;2023-11-21T04:53:20;9.30;99.90
27540;DHT22;15906;52.046;4.724;2023-11-21T04:55:45;9.30;99.90
27540;DHT22;15906;52.046;4.724;2023-11-21T04:58:12;9.30;99.90
27540;DHT22;15906;52.046;4.724;2023-11-21T05:00:38;9.30;99.90
27540;DHT22;15906;52.046;4.724;2023-11-21T05:03:03;9.40;99.90
27540;DHT22;15906;52.046;4.724;2023-11-21T05:05:30;9.40;99.90
27540;DHT22;15906;52.046;4.724;2023-11-21T05:07:56;9.40;99.90
27540;DHT22;15906;52.046;4.724;2023-11-21T05:10:21;9.40;99.90
27540;DHT22;15906;52.046;4.724;2023-11-21T05:12:50;9.30;99.90
27540;DHT22;15906;52.046;4.724;2023-11-21T05:15:16;9.40;99.90
27540;DHT22;15906;52.046;4.724;2023-11-21T05:17:43;9.30;99.90
27540;DHT22;15906;52.046;4.724;2023-11-21T05:20:15;9.40;99.90
27540;DHT22;15906;52.046;4.724;2023-11-21T05:22:45;9.30;99.90
27540;DHT22;15906;52.046;4.724;2023-11-21T05:25:11;9.20;99.90
27540;DHT22;15906;52.046;4.724;2023-11-21T05:27:37;9.20;99.90
27540;DHT22;15906;52.046;4.724;2023-11-21T05:30:04;9.20;99.90
27540;DHT22;15906;52.046;4.724;2023-11-21T05:32:37;9.20;99.90
27540;DHT22;15906;52.046;4.724;2023-11-21T05:35:03;9.20;99.90
27540;DHT22;15906;52.046;4.724;2023-11-21T05:37:28;9.20;99.90
27540;DHT22;15906;52.046;4.724;2023-11-21T05:39:54;9.20;99.90
27540;DHT22;15906;52.046;4.724;2023-11-21T05:42:23;9.20;99.90
27540;DHT22;15906;52.046;4.724;2023-11-21T05:44:49;9.30;99.90
27540;DHT22;15906;52.046;4.724;2023-11-21T05:47:14;9.30;99.90
27540;DHT22;15906;52.046;4.724;2023-11-21T05:49:40;9.30;99.90
27540;DHT22;15906;52.046;4.724;2023-11-21T05:52:05;9.30;99.90
27540;DHT22;15906;52.046;4.724;2023-11-21T05:54:32;9.20;99.90
27540;DHT22;15906;52.046;4.724;2023-11-21T05:56:57;9.30;99.90
27540;DHT22;15906;52.046;4.724;2023-11-21T05:59:23;9.30;99.90
27540;DHT22;15906;52.046;4.724;2023-11-21T06:01:48;9.30;99.90
27540;DHT22;15906;52.046;4.724;2023-11-21T06:04:14;9.30;99.90
27540;DHT22;15906;52.046;4.724;2023-11-21T06:06:40;9.30;99.90
27540;DHT22;15906;52.046;4.724;2023-11-21T06:09:05;9.30;99.90
27540;DHT22;15906;52.046;4.724;2023-11-21T06:11:33;9.30;99.90
27540;DHT22;15906;52.046;4.724;2023-11-21T06:13:59;9.30;99.90
27540;DHT22;15906;52.046;4.724;2023-11-21T06:16:25;9.40;99.90
27540;DHT22;15906;52.046;4.724;2023-11-21T06:18:50;9.40;99.90
27540;DHT22;15906;52.046;4.724;2023-11-21T06:21:16;9.40;99.90
27540;DHT22;15906;52.046;4.724;2023-11-21T06:23:44;9.40;99.90
27540;DHT22;15906;52.046;4.724;2023-11-21T06:26:10;9.40;99.90
27540;DHT22;15906;52.046;4.724;2023-11-21T06:28:35;9.40;99.90
27540;DHT22;15906;52.046;4.724;2023-11-21T06:31:02;9.50;99.90
27540;DHT22;15906;52.046;4.724;2023-11-21T06:33:34;9.50;99.90
27540;DHT22;15906;52.046;4.724;2023-11-21T06:36:00;9.50;99.90
27540;DHT22;15906;52.046;4.724;2023-11-21T06:38:28;9.40;99.90
27540;DHT22;15906;52.046;4.724;2023-11-21T06:40:56;9.40;99.90
27540;DHT22;15906;52.046;4.724;2023-11-21T06:43:22;9.40;99.90
27540;DHT22;15906;52.046;4.724;2023-11-21T06:45:47;9.30;99.90
27540;DHT22;15906;52.046;4.724;2023-11-21T06:48:13;9.20;99.90
27540;DHT22;15906;52.046;4.724;2023-11-21T06:50:38;9.20;99.90
27540;DHT22;15906;52.046;4.724;2023-11-21T06:53:04;9.20;99.90
27540;DHT22;15906;52.046;4.724;2023-11-21T06:55:32;9.20;99.90
27540;DHT22;15906;52.046;4.724;2023-11-21T06:57:57;9.20;99.90
27540;DHT22;15906;52.046;4.724;2023-11-21T07:00:23;9.20;99.90
27540;DHT22;15906;52.046;4.724;2023-11-21T07:02:49;9.30;99.90
27540;DHT22;15906;52.046;4.724;2023-11-21T07:05:14;9.20;99.90
27540;DHT22;15906;52.046;4.724;2023-11-21T07:07:41;9.30;99.90
27540;DHT22;15906;52.046;4.724;2023-11-21T07:10:07;9.30;99.90
27540;DHT22;15906;52.046;4.724;2023-11-21T07:12:33;9.30;99.90
27540;DHT22;15906;52.046;4.724;2023-11-21T07:14:59;9.40;99.90
27540;DHT22;15906;52.046;4.724;2023-11-21T07:17:25;9.50;99.90
27540;DHT22;15906;52.046;4.724;2023-11-21T07:19:51;9.50;99.90
27540;DHT22;15906;52.046;4.724;2023-11-21T07:22:16;9.60;99.90
27540;DHT22;15906;52.046;4.724;2023-11-21T07:24:48;9.60;99.90
27540;DHT22;15906;52.046;4.724;2023-11-21T07:27:15;9.60;99.90
27540;DHT22;15906;52.046;4.724;2023-11-21T07:29:41;9.70;99.90
27540;DHT22;15906;52.046;4.724;2023-11-21T07:32:06;9.70;99.90
27540;DHT22;15906;52.046;4.724;2023-11-21T07:34:34;9.80;99.90
27540;DHT22;15906;52.046;4.724;2023-11-21T07:37:00;9.70;99.90
27540;DHT22;15906;52.046;4.724;2023-11-21T07:39:25;9.70;99.90
27540;DHT22;15906;52.046;4.724;2023-11-21T07:41:51;9.80;99.90
27540;DHT22;15906;52.046;4.724;2023-11-21T07:44:17;9.70;99.90
27540;DHT22;15906;52.046;4.724;2023-11-21T07:46:43;9.80;99.90
27540;DHT22;15906;52.046;4.724;2023-11-21T07:49:08;9.80;99.90
27540;DHT22;15906;52.046;4.724;2023-11-21T07:51:34;9.80;99.90
27540;DHT22;15906;52.046;4.724;2023-11-21T07:54:00;9.80;99.90
27540;DHT22;15906;52.046;4.724;2023-11-21T07:56:26;9.90;99.90
27540;DHT22;15906;52.046;4.724;2023-11-21T07:58:51;9.90;99.90
27540;DHT22;15906;52.046;4.724;2023-11-21T08:01:17;9.90;99.90
27540;DHT22;15906;52.046;4.724;2023-11-21T08:03:43;9.90;99.90
27540;DHT22;15906;52.046;4.724;2023-11-21T08:06:09;9.90;99.90
27540;DHT22;15906;52.046;4.724;2023-11-21T08:08:35;10.00;99.90
27540;DHT22;15906;52.046;4.724;2023-11-21T08:11:00;9.90;99.90
27540;DHT22;15906;52.046;4.724;2023-11-21T08:13:28;10.00;99.90
27540;DHT22;15906;52.046;4.724;2023-11-21T08:15:56;10.00;99.90
27540;DHT22;15906;52.046;4.724;2023-11-21T08:18:23;10.00;99.90
27540;DHT22;15906;52.046;4.724;2023-11-21T08:20:50;10.00;99.90
27540;DHT22;15906;52.046;4.724;2023-11-21T08:23:15;10.10;99.90
27540;DHT22;15906;52.046;4.724;2023-11-21T08:25:44;10.20;99.90
27540;DHT22;15906;52.046;4.724;2023-11-21T08:28:10;10.20;99.90
27540;DHT22;15906;52.046;4.724;2023-11-21T08:30:36;10.20;99.90
27540;DHT22;15906;52.046;4.724;2023-11-21T08:33:01;10.20;99.90
27540;DHT22;15906;52.046;4.724;2023-11-21T08:35:28;10.20;99.90
27540;DHT22;15906;52.046;4.724;2023-11-21T08:37:54;10.20;99.90
27540;DHT22;15906;52.046;4.724;2023-11-21T08:40:20;10.30;99.90
27540;DHT22;15906;52.046;4.724;2023-11-21T08:42:47;10.30;99.90
27540;DHT22;15906;52.046;4.724;2023-11-21T08:45:13;10.30;99.90
27540;DHT22;15906;52.046;4.724;2023-11-21T08:47:39;10.30;99.90
27540;DHT22;15906;52.046;4.724;2023-11-21T08:50:06;10.30;99.90
27540;DHT22;15906;52.046;4.724;2023-11-21T08:52:33;10.30;99.90
27540;DHT22;15906;52.046;4.724;2023-11-21T08:54:59;10.30;99.90
27540;DHT22;15906;52.046;4.724;2023-11-21T08:57:28;10.30;99.90
27540;DHT22;15906;52.046;4.724;2023-11-21T08:59:53;10.40;99.90
27540;DHT22;15906;52.046;4.724;2023-11-21T09:02:25;10.40;99.90
27540;DHT22;15906;52.046;4.724;2023-11-21T09:04:51;10.50;99.90
27540;DHT22;15906;52.046;4.724;2023-11-21T09:07:21;10.50;99.90
27540;DHT22;15906;52.046;4.724;2023-11-21T09:09:47;10.50;99.90
27540;DHT22;15906;52.046;4.724;2023-11-21T09:12:13;10.50;99.90
27540;DHT22;15906;52.046;4.724;2023-11-21T09:14:39;10.50;99.90
27540;DHT22;15906;52.046;4.724;2023-11-21T09:17:05;10.50;99.90
27540;DHT22;15906;52.046;4.724;2023-11-21T09:19:37;10.60;99.90
27540;DHT22;15906;52.046;4.724;2023-11-21T09:22:02;10.50;99.90
27540;DHT22;15906;52.046;4.724;2023-11-21T09:24:28;10.60;99.90
27540;DHT22;15906;52.046;4.724;2023-11-21T09:26:54;10.50;99.90
27540;DHT22;15906;52.046;4.724;2023-11-21T09:29:19;10.60;99.90
27540;DHT22;15906;52.046;4.724;2023-11-21T09:31:45;10.50;99.90
27540;DHT22;15906;52.046;4.724;2023-11-21T09:34:10;10.50;99.90
27540;DHT22;15906;52.046;4.724;2023-11-21T09:36:38;10.50;99.90
27540;DHT22;15906;52.046;4.724;2023-11-21T09:39:04;10.50;99.90
27540;DHT22;15906;52.046;4.724;2023-11-21T09:41:39;10.50;99.90
27540;DHT22;15906;52.046;4.724;2023-11-21T09:44:08;10.50;99.90
27540;DHT22;15906;52.046;4.724;2023-11-21T09:46:37;10.50;99.90
27540;DHT22;15906;52.046;4.724;2023-11-21T09:49:05;10.60;99.90
27540;DHT22;15906;52.046;4.724;2023-11-21T09:51:34;10.60;99.90
27540;DHT22;15906;52.046;4.724;2023-11-21T09:54:04;10.60;99.90
27540;DHT22;15906;52.046;4.724;2023-11-21T09:56:34;10.60;99.90
27540;DHT22;15906;52.046;4.724;2023-11-21T09:59:01;10.60;99.90
27540;DHT22;15906;52.046;4.724;2023-11-21T10:01:30;10.60;99.90
27540;DHT22;15906;52.046;4.724;2023-11-21T10:03:56;10.50;99.90
27540;DHT22;15906;52.046;4.724;2023-11-21T10:06:22;10.50;99.90
27540;DHT22;15906;52.046;4.724;2023-11-21T10:08:51;10.50;99.90
27540;DHT22;15906;52.046;4.724;2023-11-21T10:11:17;10.50;99.90
27540;DHT22;15906;52.046;4.724;2023-11-21T10:13:46;10.50;99.90
27540;DHT22;15906;52.046;4.724;2023-11-21T10:16:15;10.40;99.90
27540;DHT22;15906;52.046;4.724;2023-11-21T10:18:41;10.40;99.90
27540;DHT22;15906;52.046;4.724;2023-11-21T10:21:08;10.40;99.90
27540;DHT22;15906;52.046;4.724;2023-11-21T10:23:34;10.30;99.90
27540;DHT22;15906;52.046;4.724;2023-11-21T10:26:00;10.40;99.90
27540;DHT22;15906;52.046;4.724;2023-11-21T10:28:26;10.40;99.90
27540;DHT22;15906;52.046;4.724;2023-11-21T10:30:52;10.40;99.90
27540;DHT22;15906;52.046;4.724;2023-11-21T10:33:27;10.30;99.90
27540;DHT22;15906;52.046;4.724;2023-11-21T10:35:52;10.30;99.90
27540;DHT22;15906;52.046;4.724;2023-11-21T10:38:21;10.30;99.90
27540;DHT22;15906;52.046;4.724;2023-11-21T10:40:48;10.40;99.90
27540;DHT22;15906;52.046;4.724;2023-11-21T10:43:15;10.40;99.90
27540;DHT22;15906;52.046;4.724;2023-11-21T10:45:41;10.30;99.90
27540;DHT22;15906;52.046;4.724;2023-11-21T10:48:13;10.30;99.90
27540;DHT22;15906;52.046;4.724;2023-11-21T10:50:46;10.30;99.90
27540;DHT22;15906;52.046;4.724;2023-11-21T10:53:12;10.30;99.90
27540;DHT22;15906;52.046;4.724;2023-11-21T10:55:38;10.30;99.90
27540;DHT22;15906;52.046;4.724;2023-11-21T10:58:05;10.40;99.90
27540;DHT22;15906;52.046;4.724;2023-11-21T11:00:33;10.40;99.90
27540;DHT22;15906;52.046;4.724;2023-11-21T11:02:59;10.40;99.90
27540;DHT22;15906;52.046;4.724;2023-11-21T11:05:26;10.50;99.90
27540;DHT22;15906;52.046;4.724;2023-11-21T11:08:08;10.50;99.90
27540;DHT22;15906;52.046;4.724;2023-11-21T11:10:37;10.40;99.90
27540;DHT22;15906;52.046;4.724;2023-11-21T11:13:04;10.50;99.90
27540;DHT22;15906;52.046;4.724;2023-11-21T11:15:32;10.50;99.90
27540;DHT22;15906;52.046;4.724;2023-11-21T11:17:58;10.40;99.90
27540;DHT22;15906;52.046;4.724;2023-11-21T11:20:29;10.50;99.90
27540;DHT22;15906;52.046;4.724;2023-11-21T11:28:21;10.60;99.90
27540;DHT22;15906;52.046;4.724;2023-11-21T11:33:46;10.50;99.90
27540;DHT22;15906;52.046;4.724;2023-11-21T11:36:25;10.60;99.90
27540;DHT22;15906;52.046;4.724;2023-11-21T11:38:53;10.50;99.90
27540;DHT22;15906;52.046;4.724;2023-11-21T11:41:30;10.50;99.90
27540;DHT22;15906;52.046;4.724;2023-11-21T11:43:58;10.50;99.90
27540;DHT22;15906;52.046;4.724;2023-11-21T11:46:53;10.50;99.90
27540;DHT22;15906;52.046;4.724;2023-11-21T11:49:27;10.60;99.90
27540;DHT22;15906;52.046;4.724;2023-11-21T11:54:56;10.60;99.90
27540;DHT22;15906;52.046;4.724;2023-11-21T11:57:24;10.60;99.90
27540;DHT22;15906;52.046;4.724;2023-11-21T12:00:09;10.60;99.90
27540;DHT22;15906;52.046;4.724;2023-11-21T12:02:36;10.50;99.90
27540;DHT22;15906;52.046;4.724;2023-11-21T12:05:09;10.50;99.90
27540;DHT22;15906;52.046;4.724;2023-11-21T12:07:51;10.50;99.90
27540;DHT22;15906;52.046;4.724;2023-11-21T12:10:20;10.60;99.90
27540;DHT22;15906;52.046;4.724;2023-11-21T12:12:56;10.50;99.90
27540;DHT22;15906;52.046;4.724;2023-11-21T12:15:23;10.40;99.90
27540;DHT22;15906;52.046;4.724;2023-11-21T12:17:51;10.40;99.90
27540;DHT22;15906;52.046;4.724;2023-11-21T12:20:22;10.40;99.90
27540;DHT22;15906;52.046;4.724;2023-11-21T12:22:49;10.30;99.90
27540;DHT22;15906;52.046;4.724;2023-11-21T12:27:42;10.30;99.90
27540;DHT22;15906;52.046;4.724;2023-11-21T12:30:09;10.30;99.90
27540;DHT22;15906;52.046;4.724;2023-11-21T12:32:39;10.30;99.90
27540;DHT22;15906;52.046;4.724;2023-11-21T12:35:07;10.40;99.90
27540;DHT22;15906;52.046;4.724;2023-11-21T12:37:33;10.40;99.90
27540;DHT22;15906;52.046;4.724;2023-11-21T12:39:59;10.30;99.90
27540;DHT22;15906;52.046;4.724;2023-11-21T12:42:24;10.30;99.90
27540;DHT22;15906;52.046;4.724;2023-11-21T12:45:10;10.30;99.90
27540;DHT22;15906;52.046;4.724;2023-11-21T12:48:12;10.30;99.90
27540;DHT22;15906;52.046;4.724;2023-11-21T12:50:38;10.30;99.90
27540;DHT22;15906;52.046;4.724;2023-11-21T12:53:08;10.30;99.90
27540;DHT22;15906;52.046;4.724;2023-11-21T12:55:35;10.40;99.90
27540;DHT22;15906;52.046;4.724;2023-11-21T12:58:04;10.30;99.90
27540;DHT22;15906;52.046;4.724;2023-11-21T13:00:36;10.40;99.90
27540;DHT22;15906;52.046;4.724;2023-11-21T13:03:06;10.40;99.90
27540;DHT22;15906;52.046;4.724;2023-11-21T13:05:37;10.40;99.90
27540;DHT22;15906;52.046;4.724;2023-11-21T13:08:10;10.50;99.90
27540;DHT22;15906;52.046;4.724;2023-11-21T13:10:43;10.50;99.90
27540;DHT22;15906;52.046;4.724;2023-11-21T13:13:11;10.40;99.90
27540;DHT22;15906;52.046;4.724;2023-11-21T13:16:02;10.30;99.90
27540;DHT22;15906;52.046;4.724;2023-11-21T13:18:31;10.40;99.90
27540;DHT22;15906;52.046;4.724;2023-11-21T13:20:59;10.30;99.90
27540;DHT22;15906;52.046;4.724;2023-11-21T13:23:25;10.30;99.90
27540;DHT22;15906;52.046;4.724;2023-11-21T13:25:52;10.30;99.90
27540;DHT22;15906;52.046;4.724;2023-11-21T13:28:18;10.30;99.90
27540;DHT22;15906;52.046;4.724;2023-11-21T13:30:46;10.30;99.90
27540;DHT22;15906;52.046;4.724;2023-11-21T13:33:12;10.30;99.90
27540;DHT22;15906;52.046;4.724;2023-11-21T13:35:43;10.30;99.90
27540;DHT22;15906;52.046;4.724;2023-11-21T13:38:17;10.30;99.90
27540;DHT22;15906;52.046;4.724;2023-11-21T13:40:52;10.30;99.90
27540;DHT22;15906;52.046;4.724;2023-11-21T13:43:23;10.30;99.90
27540;DHT22;15906;52.046;4.724;2023-11-21T13:45:51;10.30;99.90
27540;DHT22;15906;52.046;4.724;2023-11-21T13:48:26;10.30;99.90
27540;DHT22;15906;52.046;4.724;2023-11-21T13:50:57;10.20;99.90
27540;DHT22;15906;52.046;4.724;2023-11-21T13:53:34;10.20;99.90
27540;DHT22;15906;52.046;4.724;2023-11-21T13:56:02;10.10;99.90
27540;DHT22;15906;52.046;4.724;2023-11-21T13:58:28;10.00;99.90
27540;DHT22;15906;52.046;4.724;2023-11-21T14:01:16;10.00;99.90
27540;DHT22;15906;52.046;4.724;2023-11-21T14:04:00;10.00;99.90
27540;DHT22;15906;52.046;4.724;2023-11-21T14:06:50;10.00;99.90
27540;DHT22;15906;52.046;4.724;2023-11-21T14:09:20;10.00;99.90
27540;DHT22;15906;52.046;4.724;2023-11-21T14:11:55;10.00;99.90
27540;DHT22;15906;52.046;4.724;2023-11-21T14:14:23;10.00;99.90
27540;DHT22;15906;52.046;4.724;2023-11-21T14:16:51;9.90;99.90
27540;DHT22;15906;52.046;4.724;2023-11-21T14:19:17;9.90;99.90
27540;DHT22;15906;52.046;4.724;2023-11-21T14:21:46;9.90;99.90
27540;DHT22;15906;52.046;4.724;2023-11-21T14:24:14;9.90;99.90
27540;DHT22;15906;52.046;4.724;2023-11-21T14:26:41;9.90;99.90
27540;DHT22;15906;52.046;4.724;2023-11-21T14:29:08;9.90;99.90
27540;DHT22;15906;52.046;4.724;2023-11-21T14:31:34;9.90;99.90
27540;DHT22;15906;52.046;4.724;2023-11-21T14:34:00;9.90;99.90
27540;DHT22;15906;52.046;4.724;2023-11-21T14:36:28;9.90;99.90
27540;DHT22;15906;52.046;4.724;2023-11-21T14:38:53;9.90;99.90
27540;DHT22;15906;52.046;4.724;2023-11-21T14:41:19;9.90;99.90
27540;DHT22;15906;52.046;4.724;2023-11-21T14:43:45;9.90;99.90
27540;DHT22;15906;52.046;4.724;2023-11-21T14:46:13;9.90;99.90
27540;DHT22;15906;52.046;4.724;2023-11-21T14:48:42;9.70;99.90
27540;DHT22;15906;52.046;4.724;2023-11-21T14:51:11;9.70;99.90
27540;DHT22;15906;52.046;4.724;2023-11-21T14:53:55;9.70;99.90
27540;DHT22;15906;52.046;4.724;2023-11-21T14:56:26;9.70;99.90
27540;DHT22;15906;52.046;4.724;2023-11-21T14:58:53;9.70;99.90
27540;DHT22;15906;52.046;4.724;2023-11-21T15:01:21;9.70;99.90
27540;DHT22;15906;52.046;4.724;2023-11-21T15:04:00;9.70;99.90
27540;DHT22;15906;52.046;4.724;2023-11-21T15:06:26;9.60;99.90
27540;DHT22;15906;52.046;4.724;2023-11-21T15:08:58;9.60;99.90
27540;DHT22;15906;52.046;4.724;2023-11-21T15:11:50;9.60;99.90
27540;DHT22;15906;52.046;4.724;2023-11-21T15:14:20;9.60;99.90
27540;DHT22;15906;52.046;4.724;2023-11-21T15:16:50;9.60;99.90
27540;DHT22;15906;52.046;4.724;2023-11-21T15:19:18;9.60;99.90
27540;DHT22;15906;52.046;4.724;2023-11-21T15:21:50;9.70;99.90
27540;DHT22;15906;52.046;4.724;2023-11-21T15:24:15;9.50;99.90
27540;DHT22;15906;52.046;4.724;2023-11-21T15:26:41;9.50;99.90
27540;DHT22;15906;52.046;4.724;2023-11-21T15:29:07;9.40;99.90
27540;DHT22;15906;52.046;4.724;2023-11-21T15:31:33;9.40;99.90
27540;DHT22;15906;52.046;4.724;2023-11-21T15:33:58;9.30;99.90
27540;DHT22;15906;52.046;4.724;2023-11-21T15:36:26;9.30;99.90
27540;DHT22;15906;52.046;4.724;2023-11-21T15:38:52;9.40;99.90
27540;DHT22;15906;52.046;4.724;2023-11-21T15:41:19;9.30;99.90
27540;DHT22;15906;52.046;4.724;2023-11-21T15:43:44;9.30;99.90
27540;DHT22;15906;52.046;4.724;2023-11-21T15:46:10;9.30;99.90
27540;DHT22;15906;52.046;4.724;2023-11-21T15:48:36;9.30;99.90
27540;DHT22;15906;52.046;4.724;2023-11-21T15:51:06;9.30;99.90
27540;DHT22;15906;52.046;4.724;2023-11-21T15:53:33;9.30;99.90
27540;DHT22;15906;52.046;4.724;2023-11-21T15:55:59;9.30;99.90